createdAt,value
2022-09-03T00:01:59.062Z,50.74
2022-09-03T00:04:31.430Z,50.91
2022-09-03T00:07:06.456Z,50.90
2022-09-03T00:09:47.690Z,51.15
2022-09-03T00:12:40.326Z,51.26
2022-09-03T00:15:10.085Z,51.17
2022-09-03T00:18:08.334Z,51.25
2022-09-03T00:20:42.779Z,51.68
2022-09-03T00:23:16.142Z,51.67
2022-09-03T00:25:49.446Z,51.88
2022-09-03T00:28:30.396Z,52.00
2022-09-03T00:31:17.941Z,52.13
2022-09-03T00:33:51.948Z,52.17
2022-09-03T00:36:23.886Z,52.12
2022-09-03T00:38:50.746Z,52.21
2022-09-03T00:41:40.274Z,52.41
2022-09-03T00:44:37.777Z,52.52
2022-09-03T00:47:25.146Z,52.63
2022-09-03T00:50:07.218Z,52.75
2022-09-03T00:53:32.027Z,52.73
2022-09-03T00:56:14.047Z,52.87
2022-09-03T00:58:55.091Z,53.27
2022-09-03T01:01:36.306Z,53.31
2022-09-03T01:04:31.012Z,53.44
2022-09-03T01:07:16.858Z,53.48
2022-09-03T01:09:58.151Z,53.89
2022-09-03T01:12:33.133Z,53.84
2022-09-03T01:15:31.256Z,53.88
2022-09-03T01:18:29.052Z,53.91
2022-09-03T01:21:52.235Z,53.89
2022-09-03T01:25:04.829Z,54.28
2022-09-03T01:28:10.299Z,54.23
2022-09-03T01:30:49.325Z,54.23
2022-09-03T01:33:23.964Z,54.63
2022-09-03T01:36:07.946Z,54.85
2022-09-03T01:38:47.915Z,54.98
2022-09-03T01:42:00.242Z,54.96
2022-09-03T01:44:48.690Z,54.96
2022-09-03T01:47:51.739Z,54.92
2022-09-03T01:50:29.474Z,54.88
2022-09-03T01:53:03.976Z,55.02
2022-09-03T01:55:30.445Z,54.90
2022-09-03T01:58:20.190Z,55.05
2022-09-03T02:00:52.191Z,54.89
2022-09-03T02:03:19.350Z,55.08
2022-09-03T02:05:47.864Z,54.94
2022-09-03T02:08:14.421Z,54.87
2022-09-03T02:10:45.750Z,54.98
2022-09-03T02:13:35.274Z,55.06
2022-09-03T02:16:11.247Z,55.35
2022-09-03T02:18:43.175Z,55.37
2022-09-03T02:21:10.889Z,55.41
2022-09-03T02:23:39.338Z,55.70
2022-09-03T02:26:08.610Z,55.69
2022-09-03T02:28:35.514Z,55.58
2022-09-03T02:31:02.866Z,55.57
2022-09-03T02:33:38.706Z,55.56
2022-09-03T02:36:07.857Z,55.67
2022-09-03T02:38:35.316Z,55.83
2022-09-03T02:41:01.987Z,55.67
2022-09-03T02:43:35.278Z,55.82
2022-09-03T02:46:05.060Z,55.83
2022-09-03T02:48:31.651Z,55.80
2022-09-03T02:50:58.145Z,56.10
2022-09-03T02:53:25.225Z,56.22
2022-09-03T02:55:51.785Z,56.04
2022-09-03T02:58:18.330Z,55.83
2022-09-03T03:00:45.064Z,56.12
2022-09-03T03:03:11.584Z,56.28
2022-09-03T03:05:50.676Z,56.04
2022-09-03T03:08:21.259Z,56.17
2022-09-03T03:10:49.383Z,56.50
2022-09-03T03:13:16.740Z,56.54
2022-09-03T03:15:44.438Z,56.50
2022-09-03T03:18:14.428Z,56.33
2022-09-03T03:20:42.182Z,56.37
2022-09-03T03:23:08.664Z,56.50
2022-09-03T03:25:37.041Z,56.49
2022-09-03T03:28:05.294Z,56.44
2022-09-03T03:30:32.758Z,56.33
2022-09-03T03:32:59.568Z,56.36
2022-09-03T03:35:29.160Z,56.69
2022-09-03T03:37:58.276Z,56.60
2022-09-03T03:40:25.158Z,56.37
2022-09-03T03:42:51.683Z,56.49
2022-09-03T03:45:18.375Z,56.36
2022-09-03T03:47:45.035Z,56.24
2022-09-03T03:50:11.635Z,56.36
2022-09-03T03:52:38.433Z,56.30
2022-09-03T03:55:05.561Z,56.43
2022-09-03T03:57:32.482Z,56.49
2022-09-03T03:59:59.039Z,56.64
2022-09-03T04:02:25.867Z,56.61
2022-09-03T04:04:52.575Z,56.99
2022-09-03T04:07:19.317Z,56.98
2022-09-03T04:09:45.937Z,56.96
2022-09-03T04:12:12.632Z,57.15
2022-09-03T04:14:39.653Z,57.09
2022-09-03T04:17:06.190Z,57.03
2022-09-03T04:19:32.768Z,57.12
2022-09-03T04:22:05.499Z,57.28
2022-09-03T04:24:32.492Z,57.43
2022-09-03T04:26:59.083Z,57.61
2022-09-03T04:29:25.845Z,57.67
2022-09-03T04:32:10.885Z,57.59
2022-09-03T04:34:37.428Z,57.66
2022-09-03T04:37:03.963Z,57.67
2022-09-03T04:39:30.523Z,57.91
2022-09-03T04:41:59.711Z,57.80
2022-09-03T04:44:26.586Z,58.01
2022-09-03T04:46:53.425Z,57.98
2022-09-03T04:49:20.619Z,58.08
2022-09-03T04:51:47.251Z,58.00
2022-09-03T04:54:14.206Z,58.03
2022-09-03T04:56:40.755Z,58.07
2022-09-03T04:59:13.765Z,58.14
2022-09-03T05:01:41.188Z,58.21
2022-09-03T05:04:08.717Z,58.11
2022-09-03T05:06:37.267Z,58.06
2022-09-03T05:09:05.197Z,58.09
2022-09-03T05:11:31.972Z,58.04
2022-09-03T05:13:59.645Z,57.81
2022-09-03T05:16:28.449Z,57.85
2022-09-03T05:18:57.451Z,57.87
2022-09-03T05:21:24.654Z,57.89
2022-09-03T05:23:52.414Z,57.58
2022-09-03T05:26:22.309Z,57.67
2022-09-03T05:28:52.711Z,57.29
2022-09-03T05:31:20.844Z,57.21
2022-09-03T05:33:52.922Z,57.02
2022-09-03T05:36:23.111Z,56.67
2022-09-03T05:38:50.454Z,56.61
2022-09-03T05:41:18.958Z,56.64
2022-09-03T05:43:52.003Z,56.56
2022-09-03T05:46:18.765Z,56.51
2022-09-03T05:48:45.613Z,56.50
2022-09-03T05:51:16.468Z,56.21
2022-09-03T05:53:45.929Z,56.18
2022-09-03T05:56:17.926Z,56.26
2022-09-03T05:58:47.144Z,56.21
2022-09-03T06:01:28.973Z,55.90
2022-09-03T06:04:00.857Z,55.94
2022-09-03T06:06:29.231Z,55.74
2022-09-03T06:08:58.304Z,55.78
2022-09-03T06:11:29.585Z,55.40
2022-09-03T06:13:57.738Z,55.44
2022-09-03T06:16:28.995Z,55.42
2022-09-03T06:18:58.948Z,55.51
2022-09-03T06:21:25.599Z,55.34
2022-09-03T06:23:54.083Z,55.14
2022-09-03T06:26:21.090Z,55.03
2022-09-03T06:28:48.606Z,54.87
2022-09-03T06:33:41.864Z,55.00
2022-09-03T06:36:11.772Z,54.79
2022-09-03T06:38:38.421Z,54.85
2022-09-03T06:41:15.791Z,54.80
2022-09-03T06:43:42.912Z,54.82
2022-09-03T06:46:15.049Z,54.74
2022-09-03T06:48:42.436Z,54.99
2022-09-03T06:51:15.344Z,54.62
2022-09-03T06:53:44.767Z,54.50
2022-09-03T06:56:13.983Z,54.57
2022-09-03T06:58:49.665Z,54.42
2022-09-03T07:01:19.460Z,54.22
2022-09-03T07:03:47.960Z,54.37
2022-09-03T07:06:19.995Z,54.28
2022-09-03T07:08:46.787Z,53.99
2022-09-03T07:11:16.517Z,53.87
2022-09-03T07:13:45.632Z,53.62
2022-09-03T07:16:17.706Z,53.40
2022-09-03T07:18:45.581Z,53.30
2022-09-03T07:21:16.336Z,53.06
2022-09-03T07:23:43.895Z,53.01
2022-09-03T07:26:16.712Z,53.03
2022-09-03T07:28:46.088Z,52.70
2022-09-03T07:31:34.462Z,52.27
2022-09-03T07:34:09.923Z,51.21
2022-09-03T07:36:48.998Z,50.06
2022-09-03T07:39:16.803Z,49.23
2022-09-03T07:41:45.762Z,48.62
2022-09-03T07:44:20.019Z,48.87
2022-09-03T07:46:48.185Z,49.25
2022-09-03T07:49:14.923Z,49.74
2022-09-03T07:51:41.747Z,50.25
2022-09-03T07:54:11.096Z,51.20
2022-09-03T07:56:40.098Z,51.88
2022-09-03T07:59:07.689Z,51.74
2022-09-03T08:01:35.060Z,51.56
2022-09-03T08:04:03.000Z,51.13
2022-09-03T08:06:31.214Z,51.96
2022-09-03T08:09:04.996Z,51.49
2022-09-03T08:11:35.192Z,51.97
2022-09-03T08:14:06.878Z,52.28
2022-09-03T08:16:53.910Z,51.69
2022-09-03T08:19:20.657Z,51.39
2022-09-03T08:21:47.253Z,51.06
2022-09-03T08:24:16.739Z,49.43
2022-09-03T08:26:49.105Z,48.09
2022-09-03T08:29:18.946Z,47.51
2022-09-03T08:31:45.650Z,47.97
2022-09-03T08:34:14.687Z,48.68
2022-09-03T08:36:41.586Z,48.18
2022-09-03T08:39:10.886Z,48.39
2022-09-03T08:42:06.236Z,50.17
2022-09-03T08:44:57.066Z,50.42
2022-09-03T08:47:32.927Z,51.22
2022-09-03T08:50:13.269Z,51.65
2022-09-03T08:52:54.320Z,51.88
2022-09-03T08:55:26.308Z,52.20
2022-09-03T08:58:05.003Z,53.19
2022-09-03T09:01:01.601Z,53.74
2022-09-03T09:03:49.369Z,53.95
2022-09-03T09:06:50.357Z,54.02
2022-09-03T09:09:44.320Z,54.18
2022-09-03T09:12:19.990Z,54.13
2022-09-03T09:15:08.641Z,53.78
2022-09-03T09:17:54.097Z,54.43
2022-09-03T09:20:20.600Z,54.29
2022-09-03T09:22:56.646Z,54.81
2022-09-03T09:25:26.530Z,55.59
2022-09-03T09:28:23.721Z,55.83
2022-09-03T09:30:54.373Z,57.18
2022-09-03T09:33:21.836Z,57.77
2022-09-03T09:35:48.765Z,58.43
2022-09-03T09:38:16.372Z,58.22
2022-09-03T09:40:45.617Z,58.27
2022-09-03T09:43:19.273Z,58.82
2022-09-03T09:45:51.157Z,59.10
2022-09-03T09:48:23.389Z,59.75
2022-09-03T09:50:50.090Z,60.04
2022-09-03T09:53:21.778Z,61.46
2022-09-03T09:55:56.017Z,63.00
2022-09-03T09:58:26.834Z,63.60
2022-09-03T10:01:13.288Z,64.43
2022-09-03T10:03:55.475Z,67.38
2022-09-03T10:06:46.383Z,69.65
2022-09-03T10:09:16.057Z,69.11
2022-09-03T10:11:46.534Z,70.54
2022-09-03T10:14:35.426Z,70.60
2022-09-03T10:17:28.376Z,69.70
2022-09-03T10:20:44.987Z,69.56
2022-09-03T10:23:23.182Z,67.61
2022-09-03T10:26:10.146Z,67.69
2022-09-03T10:28:42.738Z,66.51
2022-09-03T10:31:47.108Z,67.86
2022-09-03T10:34:23.842Z,66.44
2022-09-03T10:37:02.427Z,65.40
2022-09-03T10:39:43.122Z,65.87
2022-09-03T10:42:35.836Z,64.58
2022-09-03T10:45:05.314Z,64.23
2022-09-03T10:48:04.586Z,62.20
2022-09-03T10:50:35.301Z,59.84
2022-09-03T10:53:39.496Z,59.38
2022-09-03T10:56:10.119Z,60.83
2022-09-03T10:58:48.944Z,61.33
2022-09-03T11:01:45.367Z,57.42
2022-09-03T11:04:27.038Z,55.69
2022-09-03T11:07:05.195Z,54.38
2022-09-03T11:09:46.157Z,52.00
2022-09-03T11:12:28.257Z,51.18
2022-09-03T11:15:13.945Z,50.09
2022-09-03T11:17:48.069Z,48.91
2022-09-03T11:20:18.575Z,48.42
2022-09-03T11:22:48.094Z,49.30
2022-09-03T11:25:17.496Z,49.85
2022-09-03T11:27:56.977Z,51.63
2022-09-03T11:30:53.619Z,48.86
2022-09-03T11:33:23.581Z,48.54
2022-09-03T11:35:57.599Z,46.28
2022-09-03T11:38:29.084Z,47.83
2022-09-03T11:41:00.394Z,47.14
2022-09-03T11:43:30.166Z,47.65
2022-09-03T11:46:28.066Z,50.15
2022-09-03T11:49:10.710Z,49.65
2022-09-03T11:51:39.659Z,49.29
2022-09-03T11:54:23.849Z,50.46
2022-09-03T11:56:50.798Z,48.80
2022-09-03T11:59:20.932Z,49.02
2022-09-03T12:01:53.409Z,48.26
2022-09-03T12:04:26.022Z,46.94
2022-09-03T12:07:20.892Z,45.97
2022-09-03T12:09:53.376Z,46.83
2022-09-03T12:12:57.470Z,45.64
2022-09-03T12:15:41.244Z,47.13
2022-09-03T12:18:22.591Z,45.95
2022-09-03T12:21:03.082Z,45.33
2022-09-03T12:23:35.212Z,44.65
2022-09-03T12:26:08.849Z,44.23
2022-09-03T12:28:38.514Z,45.18
2022-09-03T12:31:22.693Z,44.61
2022-09-03T12:34:04.069Z,44.72
2022-09-03T12:36:42.701Z,44.30
2022-09-03T12:39:13.030Z,45.20
2022-09-03T12:41:59.477Z,44.88
2022-09-03T12:44:46.987Z,44.08
2022-09-03T12:47:35.593Z,43.69
2022-09-03T12:50:11.937Z,44.35
2022-09-03T12:52:53.329Z,44.36
2022-09-03T12:58:32.160Z,42.66
2022-09-03T13:01:14.706Z,44.07
2022-09-03T13:03:50.765Z,44.41
2022-09-03T13:06:21.888Z,45.79
2022-09-03T13:09:01.062Z,45.18
2022-09-03T13:11:29.211Z,44.02
2022-09-03T13:14:05.536Z,44.04
2022-09-03T13:16:38.333Z,44.57
2022-09-03T13:19:17.800Z,44.86
2022-09-03T13:22:02.418Z,44.52
2022-09-03T13:24:40.066Z,44.63
2022-09-03T13:27:20.712Z,46.07
2022-09-03T13:30:05.590Z,46.13
2022-09-03T13:32:57.527Z,47.39
2022-09-03T13:35:48.529Z,46.86
2022-09-03T13:38:24.798Z,45.77
2022-09-03T13:41:19.901Z,44.06
2022-09-03T13:43:46.421Z,43.89
2022-09-03T13:46:29.771Z,43.51
2022-09-03T13:49:39.938Z,44.45
2022-09-03T13:52:20.407Z,43.21
2022-09-03T13:54:53.178Z,42.66
2022-09-03T13:57:45.005Z,44.21
2022-09-03T14:00:14.810Z,43.14
2022-09-03T14:03:03.766Z,45.51
2022-09-03T14:05:43.692Z,42.91
2022-09-03T14:08:54.313Z,40.60
2022-09-03T14:11:31.063Z,41.96
2022-09-03T14:14:06.595Z,41.71
2022-09-03T14:16:57.962Z,41.78
2022-09-03T14:19:43.596Z,43.17
2022-09-03T14:22:22.126Z,45.73
2022-09-03T14:25:05.294Z,49.13
2022-09-03T14:27:32.774Z,46.88
2022-09-03T14:30:04.646Z,46.89
2022-09-03T14:32:41.435Z,45.60
2022-09-03T14:35:19.987Z,44.88
2022-09-03T14:38:25.873Z,44.06
2022-09-03T14:40:58.065Z,43.98
2022-09-03T14:43:36.165Z,44.23
2022-09-03T14:46:42.513Z,43.77
2022-09-03T14:49:43.287Z,45.23
2022-09-03T14:52:52.543Z,44.07
2022-09-03T14:55:39.583Z,44.43
2022-09-03T14:58:43.748Z,45.02
2022-09-03T15:01:26.018Z,43.13
2022-09-03T15:04:19.308Z,43.06
2022-09-03T15:07:18.560Z,43.04
2022-09-03T15:09:54.597Z,44.41
2022-09-03T15:12:24.751Z,45.50
2022-09-03T15:14:57.733Z,45.39
2022-09-03T15:17:50.710Z,45.45
2022-09-03T15:20:48.724Z,44.36
2022-09-03T15:23:24.531Z,43.45
2022-09-03T15:26:10.145Z,44.32
2022-09-03T15:28:54.876Z,43.88
2022-09-03T15:31:38.918Z,44.45
2022-09-03T15:34:27.619Z,44.63
2022-09-03T15:36:58.082Z,45.76
2022-09-03T15:39:32.103Z,45.15
2022-09-03T15:42:01.807Z,45.76
2022-09-03T15:44:46.502Z,44.43
2022-09-03T15:47:29.850Z,44.26
2022-09-03T15:50:33.313Z,43.93
2022-09-03T15:53:06.013Z,42.90
2022-09-03T15:55:42.447Z,42.88
2022-09-03T15:58:21.064Z,44.40
2022-09-03T16:01:21.793Z,45.19
2022-09-03T16:04:57.049Z,45.57
2022-09-03T16:07:30.612Z,46.69
2022-09-03T16:10:30.785Z,46.77
2022-09-03T16:13:35.482Z,46.73
2022-09-03T16:16:26.680Z,47.42
2022-09-03T16:19:17.170Z,48.32
2022-09-03T16:21:54.749Z,48.79
2022-09-03T16:24:46.050Z,51.02
2022-09-03T16:27:23.992Z,52.57
2022-09-03T16:30:10.040Z,53.46
2022-09-03T16:32:48.665Z,53.61
2022-09-03T16:35:32.969Z,53.37
2022-09-03T16:38:25.465Z,53.34
2022-09-03T16:40:59.942Z,53.50
2022-09-03T16:43:41.192Z,53.30
2022-09-03T16:46:41.008Z,53.55
2022-09-03T16:49:38.566Z,54.27
2022-09-03T16:52:11.923Z,54.49
2022-09-03T16:55:04.960Z,55.71
2022-09-03T16:58:00.187Z,56.06
2022-09-03T17:00:42.303Z,57.27
2022-09-03T17:03:36.583Z,58.68
2022-09-03T17:06:29.863Z,61.00
2022-09-03T17:09:21.226Z,61.00
2022-09-03T17:12:17.352Z,62.54
2022-09-03T17:15:00.437Z,63.09
2022-09-03T17:17:41.191Z,63.53
2022-09-03T17:20:26.563Z,64.20
2022-09-03T17:23:07.122Z,64.24
2022-09-03T17:25:51.945Z,63.90
2022-09-03T17:29:02.693Z,64.67
2022-09-03T17:31:51.045Z,65.40
2022-09-03T17:34:42.602Z,66.22
2022-09-03T17:37:45.292Z,68.12
2022-09-03T17:40:41.856Z,69.28
2022-09-03T17:43:33.571Z,70.91
2022-09-03T17:46:19.320Z,74.54
2022-09-03T17:48:49.806Z,76.53
2022-09-03T17:51:37.045Z,77.64
2022-09-03T17:58:49.628Z,78.37
2022-09-03T18:01:28.828Z,79.22
2022-09-03T18:04:05.141Z,79.75
2022-09-03T18:06:40.881Z,80.80
2022-09-03T18:09:26.569Z,82.18
2022-09-03T18:12:13.077Z,82.34
2022-09-03T18:15:10.813Z,82.48
2022-09-03T18:17:42.999Z,83.06
2022-09-03T18:20:32.105Z,82.39
2022-09-03T18:23:27.454Z,82.31
2022-09-03T18:26:17.127Z,82.83
2022-09-03T18:29:29.051Z,82.20
2022-09-03T18:32:14.220Z,83.05
2022-09-03T18:35:00.086Z,83.17
2022-09-03T18:37:46.206Z,83.35
2022-09-03T18:40:44.308Z,83.49
2022-09-03T18:43:46.828Z,82.96
2022-09-03T18:47:54.325Z,82.64
2022-09-03T18:49:48.656Z,82.12
2022-09-03T18:52:53.696Z,82.78
2022-09-03T18:55:55.381Z,82.51
2022-09-03T18:58:43.699Z,82.40
2022-09-03T19:01:57.532Z,82.88
2022-09-03T19:05:05.947Z,83.23
2022-09-03T19:08:43.323Z,83.23
2022-09-03T19:11:47.266Z,83.37
2022-09-03T19:14:58.997Z,82.87
2022-09-03T19:17:56.504Z,83.68
2022-09-03T19:20:50.677Z,83.97
2022-09-03T19:23:35.968Z,84.13
2022-09-03T19:26:35.172Z,84.70
2022-09-03T19:29:30.955Z,84.59
2022-09-03T19:32:27.262Z,84.95
2022-09-03T19:35:36.442Z,85.01
2022-09-03T19:38:42.327Z,85.15
2022-09-03T19:41:44.734Z,85.44
2022-09-03T19:44:43.284Z,85.80
2022-09-03T19:47:36.450Z,85.90
2022-09-03T19:50:31.588Z,86.22
2022-09-03T19:53:23.482Z,86.65
2022-09-03T19:56:14.310Z,86.43
2022-09-03T19:59:04.377Z,86.21
2022-09-03T20:01:54.764Z,86.01
2022-09-03T20:04:50.757Z,85.60
2022-09-03T20:07:36.293Z,86.07
2022-09-03T20:10:24.143Z,85.73
2022-09-03T20:12:59.787Z,85.59
2022-09-03T20:15:49.404Z,85.40
2022-09-03T20:18:30.585Z,86.36
2022-09-03T20:20:59.966Z,86.10
2022-09-03T20:23:35.276Z,85.58
2022-09-03T20:26:50.187Z,85.79
2022-09-03T20:29:16.667Z,86.15
2022-09-03T20:32:16.642Z,85.47
2022-09-03T20:34:58.070Z,85.71
2022-09-03T20:37:43.716Z,85.82
2022-09-03T20:40:29.232Z,85.69
2022-09-03T20:43:08.430Z,86.03
2022-09-03T20:45:54.887Z,86.23
2022-09-03T20:48:36.815Z,85.70
2022-09-03T20:51:12.030Z,85.72
2022-09-03T20:53:55.036Z,85.72
2022-09-03T20:56:30.845Z,86.25
2022-09-03T20:59:13.633Z,86.12
2022-09-03T21:02:12.935Z,86.59
2022-09-03T21:04:57.952Z,86.53
2022-09-03T21:07:43.338Z,86.76
2022-09-03T21:10:18.932Z,86.82
2022-09-03T21:12:53.600Z,86.82
2022-09-03T21:15:45.541Z,87.10
2022-09-03T21:18:14.809Z,87.38
2022-09-03T21:21:02.090Z,87.54
2022-09-03T21:23:35.334Z,87.79
2022-09-03T21:26:14.891Z,87.41
2022-09-03T21:28:45.817Z,87.05
2022-09-03T21:31:24.336Z,87.30
2022-09-03T21:33:58.519Z,87.41
2022-09-03T21:36:34.966Z,87.29
2022-09-03T21:39:21.582Z,87.27
2022-09-03T21:41:58.062Z,87.08
2022-09-03T21:44:39.750Z,87.47
2022-09-03T21:47:14.910Z,87.45
2022-09-03T21:50:18.532Z,87.44
2022-09-03T21:52:56.330Z,87.58
2022-09-03T21:55:29.623Z,87.42
2022-09-03T21:58:25.348Z,87.37
2022-09-03T22:00:56.820Z,87.67
2022-09-03T22:03:23.510Z,87.57
2022-09-03T22:06:06.248Z,87.75
2022-09-03T22:08:55.911Z,87.97
2022-09-03T22:11:33.297Z,88.15
2022-09-03T22:14:07.339Z,88.42
2022-09-03T22:16:45.318Z,88.19
2022-09-03T22:19:11.979Z,88.48
2022-09-03T22:21:44.504Z,88.07
2022-09-03T22:24:29.878Z,87.94
2022-09-03T22:27:18.476Z,88.10
2022-09-03T22:30:05.937Z,88.38
2022-09-03T22:32:36.327Z,88.82
2022-09-03T22:35:30.155Z,88.40
2022-09-03T22:38:30.021Z,88.64
2022-09-03T22:41:26.751Z,88.37
2022-09-03T22:44:24.894Z,88.83
2022-09-03T22:47:14.353Z,88.94
2022-09-03T22:50:18.315Z,88.58
2022-09-03T22:52:51.892Z,88.69
2022-09-03T22:55:25.665Z,88.94
2022-09-03T22:57:58.991Z,88.48
2022-09-03T23:00:29.811Z,88.80
2022-09-03T23:03:04.972Z,88.71
2022-09-03T23:05:35.346Z,89.70
2022-09-03T23:08:06.227Z,89.45
2022-09-03T23:11:11.637Z,89.47
2022-09-03T23:13:42.400Z,89.48
2022-09-03T23:16:21.878Z,89.54
2022-09-03T23:18:51.433Z,89.62
2022-09-03T23:21:29.006Z,89.32
2022-09-03T23:23:58.402Z,89.23
2022-09-03T23:26:51.521Z,89.28
2022-09-03T23:29:32.134Z,88.93
2022-09-03T23:31:59.445Z,89.11
2022-09-03T23:34:27.097Z,89.00
2022-09-03T23:37:34.936Z,88.92
2022-09-03T23:40:16.367Z,89.18
2022-09-03T23:43:01.651Z,88.99
2022-09-03T23:46:05.378Z,89.34
2022-09-03T23:49:20.285Z,89.72
2022-09-03T23:52:13.916Z,90.23
2022-09-03T23:54:54.683Z,90.28
